createdAt,value
2022-09-12T04:15:28.034Z,3.38
2022-09-12T04:17:57.184Z,3.75
2022-09-12T04:20:29.611Z,3.60
2022-09-12T04:23:00.772Z,3.35
2022-09-12T04:25:31.852Z,3.60
2022-09-12T04:28:01.084Z,3.55
2022-09-12T04:30:32.626Z,4.00
2022-09-12T04:33:08.147Z,3.50
2022-09-12T04:38:07.351Z,3.40
2022-09-12T04:40:36.948Z,3.30
2022-09-12T04:43:10.136Z,3.40
2022-09-12T04:45:43.439Z,3.38
2022-09-12T04:48:13.170Z,3.40
2022-09-12T04:50:42.288Z,3.83
2022-09-12T04:53:11.537Z,3.20
2022-09-12T04:55:40.697Z,3.40
2022-09-12T04:58:11.889Z,3.28
2022-09-12T05:00:42.502Z,3.75
2022-09-12T05:03:29.086Z,3.42
2022-09-12T05:05:58.435Z,3.70
2022-09-12T05:08:27.855Z,3.60
2022-09-12T05:10:57.683Z,3.70
2022-09-12T05:13:34.469Z,3.40
2022-09-12T05:16:13.973Z,3.10
2022-09-12T05:18:45.423Z,2.90
2022-09-12T05:21:17.970Z,3.10
2022-09-12T05:23:48.246Z,3.30
2022-09-12T05:26:19.595Z,3.15
2022-09-12T05:28:50.181Z,2.88
2022-09-12T05:31:43.971Z,2.55
2022-09-12T05:34:13.485Z,2.20
2022-09-12T05:36:42.765Z,2.50
2022-09-12T05:39:18.253Z,2.67
2022-09-12T05:41:50.118Z,3.47
2022-09-12T05:44:19.298Z,3.20
2022-09-12T05:46:52.016Z,3.38
2022-09-12T05:49:28.058Z,2.97
2022-09-12T05:51:57.283Z,3.05
2022-09-12T05:54:31.607Z,3.40
2022-09-12T05:57:01.096Z,3.53
2022-09-12T05:59:30.522Z,3.40
2022-09-12T06:02:05.829Z,3.47
2022-09-12T06:04:35.006Z,3.15
2022-09-12T06:07:04.245Z,3.30
2022-09-12T06:09:35.542Z,3.10
2022-09-12T06:12:05.898Z,3.35
2022-09-12T06:14:34.992Z,3.13
2022-09-12T06:17:06.258Z,3.83
2022-09-12T06:19:35.303Z,3.20
2022-09-12T06:22:05.590Z,3.33
2022-09-12T06:24:34.998Z,3.50
2022-09-12T06:27:04.098Z,3.40
2022-09-12T06:29:37.032Z,3.33
2022-09-12T06:32:12.285Z,3.70
2022-09-12T06:34:43.488Z,3.20
2022-09-12T06:37:15.127Z,3.00
2022-09-12T06:39:54.473Z,3.03
2022-09-12T06:42:27.921Z,3.15
2022-09-12T06:44:57.453Z,3.60
2022-09-12T06:47:28.818Z,3.30
2022-09-12T06:49:58.085Z,3.42
2022-09-12T06:52:30.268Z,3.60
2022-09-12T06:54:59.780Z,3.50
2022-09-12T06:57:48.643Z,4.15
2022-09-12T07:00:18.466Z,3.40
2022-09-12T07:03:04.611Z,3.40
2022-09-12T07:06:19.773Z,3.80
2022-09-12T07:08:55.128Z,3.67
2022-09-12T07:11:40.392Z,3.83
2022-09-12T07:17:17.850Z,3.85
2022-09-12T07:19:48.817Z,3.50
2022-09-12T07:22:22.881Z,4.50
2022-09-12T07:24:56.168Z,4.00
2022-09-12T07:27:27.006Z,3.40
2022-09-12T07:30:15.666Z,3.67
2022-09-12T07:32:44.999Z,4.35
2022-09-12T07:35:18.537Z,6.10
2022-09-12T07:37:47.704Z,5.57
2022-09-12T07:40:17.040Z,5.28
2022-09-12T07:42:48.241Z,3.53
2022-09-12T07:45:17.734Z,5.07
2022-09-12T07:47:46.837Z,4.93
2022-09-12T07:50:17.618Z,4.55
2022-09-12T07:52:46.700Z,4.82
2022-09-12T07:55:15.898Z,4.70
2022-09-12T07:57:45.322Z,4.38
2022-09-12T08:00:15.878Z,3.83
2022-09-12T08:02:45.186Z,2.90
2022-09-12T08:05:14.362Z,2.38
2022-09-12T08:07:44.981Z,4.85
2022-09-12T08:10:14.189Z,4.10
2022-09-12T08:12:44.501Z,3.63
2022-09-12T08:15:13.837Z,2.70
2022-09-12T08:17:43.488Z,4.30
2022-09-12T08:20:12.782Z,4.45
2022-09-12T08:22:42.055Z,4.80
2022-09-12T08:25:14.334Z,3.65
2022-09-12T08:27:46.226Z,2.80
